createdAt,value
2019-03-31T00:00:32.961Z,4.83
2019-03-31T00:03:00.875Z,4.87
2019-03-31T00:05:28.860Z,5.00
2019-03-31T00:07:56.742Z,4.47
2019-03-31T00:10:24.602Z,4.70
2019-03-31T00:12:52.505Z,5.27
2019-03-31T00:15:20.342Z,4.20
2019-03-31T00:17:48.280Z,4.50
2019-03-31T00:20:16.168Z,5.17
2019-03-31T00:22:44.051Z,5.13
2019-03-31T00:25:11.944Z,5.17
2019-03-31T00:27:39.803Z,4.77
2019-03-31T00:30:08.442Z,4.83
2019-03-31T00:32:36.360Z,4.90
2019-03-31T00:35:04.704Z,4.37
2019-03-31T00:37:32.592Z,5.00
2019-03-31T00:40:00.470Z,5.00
2019-03-31T00:42:28.355Z,5.10
2019-03-31T00:44:56.241Z,5.13
2019-03-31T00:47:24.144Z,4.90
2019-03-31T00:49:52.020Z,4.67
2019-03-31T00:52:19.923Z,5.07
2019-03-31T00:54:47.801Z,5.40
2019-03-31T00:57:15.660Z,4.83
2019-03-31T00:59:43.562Z,4.57
2019-03-31T01:02:15.106Z,4.80
2019-03-31T01:04:43.101Z,5.00
2019-03-31T01:07:11.201Z,4.43
2019-03-31T01:09:39.149Z,4.57
2019-03-31T01:12:07.043Z,4.90
2019-03-31T01:14:35.394Z,4.33
2019-03-31T01:17:04.041Z,4.60
2019-03-31T01:19:32.480Z,4.53
2019-03-31T01:22:02.622Z,5.23
2019-03-31T01:24:30.551Z,4.13
2019-03-31T01:26:58.421Z,4.67
2019-03-31T01:29:26.347Z,4.00
2019-03-31T01:31:55.523Z,4.43
2019-03-31T01:34:23.965Z,4.60
2019-03-31T01:36:52.140Z,4.67
2019-03-31T01:39:21.281Z,4.73
2019-03-31T01:41:49.141Z,5.37
2019-03-31T01:44:17.137Z,4.67
2019-03-31T01:46:45.159Z,4.97
2019-03-31T01:49:13.041Z,4.80
2019-03-31T01:51:41.301Z,4.30
2019-03-31T01:54:09.189Z,4.73
2019-03-31T01:56:37.060Z,4.90
2019-03-31T01:59:04.961Z,4.80
2019-03-31T02:01:32.945Z,4.73
2019-03-31T02:04:00.878Z,4.77
2019-03-31T02:06:28.780Z,4.70
2019-03-31T02:08:56.664Z,5.17
2019-03-31T02:11:24.560Z,4.70
2019-03-31T02:13:52.399Z,4.90
2019-03-31T02:16:20.271Z,4.47
2019-03-31T02:18:48.106Z,4.50
2019-03-31T02:21:15.946Z,4.97
2019-03-31T02:23:43.802Z,4.87
2019-03-31T02:26:11.640Z,4.80
2019-03-31T02:28:39.518Z,5.30
2019-03-31T02:31:07.401Z,5.17
2019-03-31T02:33:35.269Z,5.13
2019-03-31T02:36:03.154Z,4.70
2019-03-31T02:38:31.046Z,4.80
2019-03-31T02:40:59.067Z,4.80
2019-03-31T02:43:26.956Z,5.07
2019-03-31T02:45:54.853Z,4.83
2019-03-31T02:48:22.740Z,5.40
2019-03-31T02:50:51.205Z,5.40
2019-03-31T02:53:19.709Z,5.40
2019-03-31T02:55:47.784Z,4.70
2019-03-31T02:58:18.279Z,5.17
2019-03-31T03:00:46.342Z,5.20
2019-03-31T03:03:15.715Z,5.00
2019-03-31T03:05:44.988Z,4.67
2019-03-31T03:08:13.376Z,6.23
2019-03-31T03:10:43.028Z,5.93
2019-03-31T03:13:13.617Z,5.70
2019-03-31T03:16:10.148Z,6.20
2019-03-31T03:18:37.986Z,5.73
2019-03-31T03:21:05.842Z,6.33
2019-03-31T03:23:33.718Z,6.00
2019-03-31T03:26:01.757Z,5.87
2019-03-31T03:28:29.845Z,4.87
2019-03-31T03:30:58.257Z,6.10
2019-03-31T03:33:26.731Z,5.60
2019-03-31T03:35:54.961Z,5.80
2019-03-31T03:38:23.139Z,5.80
2019-03-31T03:40:51.416Z,5.07
2019-03-31T03:43:19.491Z,5.80
2019-03-31T03:45:47.814Z,5.43
2019-03-31T03:48:15.888Z,5.47
2019-03-31T03:50:43.771Z,5.50
2019-03-31T03:53:11.596Z,6.13
2019-03-31T03:55:39.857Z,6.13
2019-03-31T03:58:08.013Z,5.63
2019-03-31T04:00:36.346Z,5.67
2019-03-31T04:03:04.633Z,5.90
2019-03-31T04:05:32.759Z,6.20
2019-03-31T04:08:00.620Z,5.53
2019-03-31T04:11:11.882Z,6.60
2019-03-31T04:13:39.730Z,6.33
2019-03-31T04:16:07.598Z,6.20
2019-03-31T04:18:35.461Z,5.33
2019-03-31T04:21:03.381Z,5.60
2019-03-31T04:23:31.220Z,5.30
2019-03-31T04:25:59.100Z,5.00
2019-03-31T04:28:27.351Z,5.93
2019-03-31T04:30:55.197Z,5.83
2019-03-31T04:33:23.099Z,5.90
2019-03-31T04:35:50.975Z,5.00
2019-03-31T04:38:18.875Z,4.97
2019-03-31T04:40:46.797Z,5.60
2019-03-31T04:43:14.606Z,5.80
2019-03-31T04:45:42.461Z,6.53
2019-03-31T04:48:10.359Z,6.30
2019-03-31T04:50:38.210Z,6.30
2019-03-31T04:53:06.090Z,6.70
2019-03-31T04:55:34.055Z,6.53
2019-03-31T04:58:02.227Z,6.13
2019-03-31T05:00:30.075Z,6.20
2019-03-31T05:02:57.978Z,5.77
2019-03-31T05:05:25.855Z,5.63
2019-03-31T05:07:53.725Z,5.87
2019-03-31T05:10:21.636Z,5.67
2019-03-31T05:12:49.555Z,6.13
2019-03-31T05:15:17.395Z,5.90
2019-03-31T05:17:45.375Z,5.80
2019-03-31T05:20:13.275Z,5.70
2019-03-31T05:22:41.135Z,5.70
2019-03-31T05:25:09.035Z,5.73
2019-03-31T05:27:36.894Z,5.93
2019-03-31T05:30:05.027Z,5.60
2019-03-31T05:32:32.956Z,6.10
2019-03-31T05:35:00.875Z,5.33
2019-03-31T05:37:28.757Z,5.50
2019-03-31T05:39:56.695Z,5.33
2019-03-31T05:42:24.550Z,5.70
2019-03-31T05:44:52.429Z,5.40
2019-03-31T05:47:20.515Z,5.10
2019-03-31T05:49:48.379Z,5.50
2019-03-31T05:52:16.234Z,5.00
2019-03-31T05:54:44.098Z,5.40
2019-03-31T05:57:11.977Z,5.20
2019-03-31T05:59:39.875Z,6.00
2019-03-31T06:02:07.809Z,5.33
2019-03-31T06:04:35.654Z,6.30
2019-03-31T06:07:03.560Z,5.63
2019-03-31T06:09:31.435Z,5.90
2019-03-31T06:11:59.313Z,5.27
2019-03-31T06:14:27.219Z,5.10
2019-03-31T06:16:55.077Z,5.27
2019-03-31T06:19:23.032Z,5.13
2019-03-31T06:21:50.958Z,5.90
2019-03-31T06:24:18.877Z,5.90
2019-03-31T06:26:46.799Z,5.90
2019-03-31T06:29:14.666Z,6.87
2019-03-31T06:31:42.561Z,6.17
2019-03-31T06:34:10.458Z,5.90
2019-03-31T06:36:38.346Z,5.60
2019-03-31T06:39:06.935Z,6.50
2019-03-31T06:41:35.005Z,6.73
2019-03-31T06:44:02.935Z,6.73
2019-03-31T06:46:30.809Z,6.37
2019-03-31T06:48:58.676Z,6.90
2019-03-31T06:51:26.585Z,6.13
2019-03-31T06:53:54.456Z,5.77
2019-03-31T06:56:22.375Z,6.73
2019-03-31T06:58:50.218Z,6.37
2019-03-31T07:01:18.467Z,6.40
2019-03-31T07:03:46.374Z,5.97
2019-03-31T07:06:14.243Z,5.50
2019-03-31T07:08:42.095Z,5.97
2019-03-31T07:11:09.993Z,5.93
2019-03-31T07:13:37.847Z,5.17
2019-03-31T07:16:05.953Z,5.20
2019-03-31T07:18:33.853Z,5.07
2019-03-31T07:21:01.690Z,5.00
2019-03-31T07:23:29.902Z,4.80
2019-03-31T07:25:58.295Z,4.87
2019-03-31T07:28:26.576Z,4.57
2019-03-31T07:30:54.730Z,4.57
2019-03-31T07:33:22.594Z,5.10
2019-03-31T07:35:50.487Z,4.60
2019-03-31T07:38:18.638Z,4.43
2019-03-31T07:40:46.855Z,4.43
2019-03-31T07:43:15.005Z,4.23
2019-03-31T07:45:43.259Z,4.67
2019-03-31T07:48:11.133Z,4.07
2019-03-31T07:50:38.997Z,4.17
2019-03-31T07:53:06.835Z,4.20
2019-03-31T07:55:34.775Z,4.37
2019-03-31T07:58:02.738Z,4.67
2019-03-31T08:00:30.702Z,4.30
2019-03-31T08:03:00.266Z,4.10
2019-03-31T08:05:33.446Z,4.00
2019-03-31T08:07:58.158Z,4.40
2019-03-31T08:10:25.997Z,4.37
2019-03-31T08:12:53.906Z,4.63
2019-03-31T08:15:27.777Z,4.40
2019-03-31T08:17:55.679Z,4.20
2019-03-31T08:20:23.654Z,4.20
2019-03-31T08:22:51.515Z,4.00
2019-03-31T08:25:19.578Z,3.87
2019-03-31T08:27:47.440Z,3.73
2019-03-31T08:30:17.260Z,3.70
2019-03-31T08:32:45.170Z,3.90
2019-03-31T08:35:14.134Z,3.80
2019-03-31T08:37:42.023Z,3.70
2019-03-31T08:40:12.701Z,3.33
2019-03-31T08:42:40.651Z,3.80
2019-03-31T08:45:09.001Z,3.90
2019-03-31T08:47:37.187Z,4.10
2019-03-31T08:50:05.344Z,3.00
2019-03-31T08:52:33.288Z,3.40
2019-03-31T08:55:01.218Z,3.63
2019-03-31T08:57:29.332Z,3.87
2019-03-31T08:59:57.442Z,4.00
2019-03-31T09:02:31.174Z,3.17
2019-03-31T09:04:59.174Z,3.17
2019-03-31T09:07:27.038Z,3.83
2019-03-31T09:09:54.965Z,3.43
2019-03-31T09:12:22.836Z,4.10
2019-03-31T09:14:50.702Z,3.60
2019-03-31T09:17:18.615Z,3.80
2019-03-31T09:19:46.535Z,3.77
2019-03-31T09:22:14.492Z,3.47
2019-03-31T09:24:42.418Z,4.60
2019-03-31T09:27:10.304Z,4.03
2019-03-31T09:29:38.280Z,3.53
2019-03-31T09:32:06.171Z,3.70
2019-03-31T09:34:34.158Z,3.70
2019-03-31T09:37:03.536Z,3.50
2019-03-31T09:39:31.390Z,3.40
2019-03-31T09:41:59.298Z,3.30
2019-03-31T09:44:30.181Z,3.50
2019-03-31T09:46:57.094Z,3.60
2019-03-31T09:49:25.080Z,3.20
2019-03-31T09:51:52.955Z,3.57
2019-03-31T09:54:20.903Z,3.33
2019-03-31T09:56:48.834Z,3.63
2019-03-31T09:59:16.799Z,3.47
2019-03-31T10:01:44.722Z,4.90
2019-03-31T10:04:12.854Z,4.67
2019-03-31T10:06:40.809Z,5.07
2019-03-31T10:09:08.755Z,4.30
2019-03-31T10:11:36.916Z,4.30
2019-03-31T10:14:04.880Z,4.63
2019-03-31T10:16:32.800Z,4.53
2019-03-31T10:19:00.816Z,4.40
2019-03-31T10:21:28.715Z,4.80
2019-03-31T10:23:56.577Z,4.57
2019-03-31T10:26:31.891Z,4.30
2019-03-31T10:28:54.340Z,5.20
2019-03-31T10:31:22.315Z,5.63
2019-03-31T10:33:50.190Z,5.33
2019-03-31T10:36:18.168Z,6.00
2019-03-31T10:38:46.114Z,5.87
2019-03-31T10:41:14.115Z,5.93
2019-03-31T10:43:42.115Z,5.83
2019-03-31T10:46:10.179Z,6.40
2019-03-31T10:48:38.093Z,6.47
2019-03-31T10:51:06.250Z,6.60
2019-03-31T10:53:34.576Z,6.77
2019-03-31T10:56:02.492Z,6.67
2019-03-31T10:58:30.341Z,6.53
2019-03-31T11:00:58.461Z,7.53
2019-03-31T11:03:26.396Z,7.73
2019-03-31T11:05:54.354Z,6.17
2019-03-31T11:08:22.360Z,7.40
2019-03-31T11:10:50.297Z,7.60
2019-03-31T11:13:18.222Z,7.07
2019-03-31T11:15:46.137Z,7.13
2019-03-31T11:18:14.194Z,7.53
2019-03-31T11:20:42.038Z,7.33
2019-03-31T11:23:20.716Z,7.40
2019-03-31T11:25:48.635Z,7.23
2019-03-31T11:28:16.520Z,7.70
2019-03-31T11:30:44.462Z,7.67
2019-03-31T11:33:12.457Z,7.43
2019-03-31T11:35:40.374Z,7.00
2019-03-31T11:38:08.348Z,7.50
2019-03-31T11:40:36.305Z,7.43
2019-03-31T11:43:04.435Z,7.10
2019-03-31T11:45:32.554Z,7.47
2019-03-31T11:48:00.456Z,7.53
2019-03-31T11:50:28.455Z,7.53
2019-03-31T11:52:56.420Z,7.33
2019-03-31T11:55:24.352Z,7.57
2019-03-31T11:57:52.363Z,7.00
2019-03-31T12:00:21.124Z,7.40
2019-03-31T12:02:49.402Z,7.00
2019-03-31T12:05:17.624Z,6.90
2019-03-31T12:07:47.299Z,7.17
2019-03-31T12:10:15.801Z,7.40
2019-03-31T12:12:43.691Z,6.87
2019-03-31T12:15:12.239Z,7.43
2019-03-31T12:17:40.197Z,6.67
2019-03-31T12:20:08.585Z,7.73
2019-03-31T12:22:36.738Z,7.53
2019-03-31T12:25:05.439Z,7.97
2019-03-31T12:27:33.400Z,6.73
2019-03-31T12:30:01.368Z,7.10
2019-03-31T12:32:29.501Z,6.10
2019-03-31T12:34:57.505Z,7.17
2019-03-31T12:37:25.459Z,7.33
2019-03-31T12:39:53.409Z,7.00
2019-03-31T12:42:21.429Z,7.53
2019-03-31T12:44:49.526Z,7.00
2019-03-31T12:47:17.652Z,7.30
2019-03-31T12:49:45.795Z,7.50
2019-03-31T12:52:13.829Z,7.27
2019-03-31T12:54:41.851Z,7.90
2019-03-31T12:57:09.823Z,7.07
2019-03-31T12:59:37.853Z,6.47
2019-03-31T13:02:06.026Z,7.00
2019-03-31T13:04:33.981Z,7.30
2019-03-31T13:07:01.975Z,7.30
2019-03-31T13:09:31.377Z,7.37
2019-03-31T13:11:59.520Z,6.80
2019-03-31T13:14:27.674Z,7.50
2019-03-31T13:16:55.996Z,6.77
2019-03-31T13:19:24.248Z,6.60
2019-03-31T13:21:52.560Z,6.17
2019-03-31T13:24:20.635Z,6.20
2019-03-31T13:26:48.681Z,6.17
2019-03-31T13:29:16.675Z,6.40
2019-03-31T13:31:44.795Z,6.57
2019-03-31T13:34:12.784Z,5.77
2019-03-31T13:36:40.774Z,6.40
2019-03-31T13:39:08.772Z,6.43
2019-03-31T13:41:36.798Z,7.60
2019-03-31T13:44:04.740Z,6.23
2019-03-31T13:46:32.712Z,6.03
2019-03-31T13:49:00.757Z,5.77
2019-03-31T13:51:28.750Z,6.20
2019-03-31T13:53:57.981Z,5.80
2019-03-31T13:56:26.536Z,5.23
2019-03-31T13:58:55.132Z,5.57
2019-03-31T14:01:23.164Z,5.33
2019-03-31T14:03:51.107Z,5.30
2019-03-31T14:06:19.168Z,5.30
2019-03-31T14:08:47.760Z,5.90
2019-03-31T14:11:15.837Z,5.80
2019-03-31T14:13:43.804Z,5.40
2019-03-31T14:16:11.972Z,5.33
2019-03-31T14:18:40.785Z,6.27
2019-03-31T14:21:09.133Z,5.63
2019-03-31T14:23:37.664Z,5.60
2019-03-31T14:26:06.053Z,5.37
2019-03-31T14:28:34.415Z,5.87
2019-03-31T14:31:02.636Z,5.70
2019-03-31T14:33:31.346Z,5.13
2019-03-31T14:35:59.571Z,5.43
2019-03-31T14:38:39.604Z,5.00
2019-03-31T14:40:58.280Z,5.23
2019-03-31T14:43:28.156Z,5.33
2019-03-31T14:45:56.563Z,5.63
2019-03-31T14:48:24.798Z,4.67
2019-03-31T14:50:53.023Z,4.87
2019-03-31T14:53:21.249Z,4.87
2019-03-31T14:55:49.408Z,5.10
2019-03-31T14:58:17.679Z,5.10
2019-03-31T15:00:46.123Z,5.17
2019-03-31T15:03:14.237Z,5.37
2019-03-31T15:05:42.436Z,4.73
2019-03-31T15:08:10.640Z,5.50
2019-03-31T15:10:38.834Z,4.90
2019-03-31T15:13:07.094Z,5.73
2019-03-31T15:15:35.381Z,4.80
2019-03-31T15:18:03.968Z,4.83
2019-03-31T15:20:32.384Z,5.10
2019-03-31T15:23:00.944Z,5.43
2019-03-31T15:25:29.279Z,6.00
2019-03-31T15:27:57.568Z,6.00
2019-03-31T15:30:26.044Z,6.63
2019-03-31T15:32:54.363Z,5.83
2019-03-31T15:35:22.800Z,5.87
2019-03-31T15:37:52.025Z,6.20
2019-03-31T15:40:20.556Z,5.83
2019-03-31T15:42:48.965Z,6.07
2019-03-31T15:45:17.396Z,6.50
2019-03-31T15:47:45.863Z,7.27
2019-03-31T15:50:14.440Z,6.80
2019-03-31T15:52:42.931Z,6.70
2019-03-31T15:55:12.513Z,6.33
2019-03-31T15:57:41.001Z,6.70
2019-03-31T16:00:09.835Z,7.00
2019-03-31T16:02:38.534Z,6.83
2019-03-31T16:05:08.273Z,6.87
2019-03-31T16:07:36.556Z,7.37
2019-03-31T16:10:05.055Z,8.03
2019-03-31T16:12:32.702Z,7.33
2019-03-31T16:15:00.457Z,8.00
2019-03-31T16:17:28.299Z,8.03
2019-03-31T16:19:56.298Z,7.33
2019-03-31T16:22:24.076Z,7.43
2019-03-31T16:24:54.392Z,8.30
2019-03-31T16:27:22.181Z,7.80
2019-03-31T16:29:49.809Z,7.93
2019-03-31T16:32:17.473Z,8.53
2019-03-31T16:34:45.474Z,7.90
2019-03-31T16:37:13.416Z,7.40
2019-03-31T16:39:41.175Z,8.50
2019-03-31T16:42:09.102Z,7.40
2019-03-31T16:44:36.950Z,7.97
2019-03-31T16:47:05.754Z,7.97
2019-03-31T16:49:33.760Z,8.03
2019-03-31T16:52:01.530Z,7.73
2019-03-31T16:54:29.443Z,8.23
2019-03-31T16:56:57.552Z,7.80
2019-03-31T16:59:25.492Z,7.53
2019-03-31T17:01:53.337Z,7.60
2019-03-31T17:04:21.292Z,8.37
2019-03-31T17:06:49.323Z,7.67
2019-03-31T17:09:17.215Z,7.67
2019-03-31T17:11:45.042Z,8.20
2019-03-31T17:14:12.970Z,7.67
2019-03-31T17:16:41.003Z,7.70
2019-03-31T17:19:09.011Z,6.70
2019-03-31T17:21:36.992Z,8.70
2019-03-31T17:24:04.991Z,7.37
2019-03-31T17:26:32.918Z,7.20
2019-03-31T17:29:00.688Z,7.67
2019-03-31T17:31:28.780Z,7.40
2019-03-31T17:33:57.172Z,7.03
2019-03-31T17:36:25.122Z,7.50
2019-03-31T17:38:53.140Z,8.07
2019-03-31T17:41:21.082Z,7.57
2019-03-31T17:43:48.996Z,6.83
2019-03-31T17:46:16.981Z,7.77
2019-03-31T17:48:45.099Z,7.30
2019-03-31T17:51:12.992Z,7.47
2019-03-31T17:53:40.901Z,7.20
2019-03-31T17:56:08.851Z,7.50
2019-03-31T17:58:38.162Z,7.23
2019-03-31T18:01:06.181Z,7.73
2019-03-31T18:03:33.955Z,6.77
2019-03-31T18:06:01.901Z,7.07
2019-03-31T18:08:29.910Z,7.03
2019-03-31T18:10:57.871Z,7.50
2019-03-31T18:13:25.801Z,14.70
2019-03-31T18:15:53.690Z,27.30
2019-03-31T18:18:21.656Z,12.07
2019-03-31T18:20:50.188Z,13.07
2019-03-31T18:23:18.070Z,10.80
2019-03-31T18:25:46.260Z,7.27
2019-03-31T18:28:14.124Z,9.27
2019-03-31T18:30:42.068Z,6.97
2019-03-31T18:33:10.157Z,7.47
2019-03-31T18:35:37.986Z,7.40
2019-03-31T18:38:06.673Z,6.80
2019-03-31T18:40:35.681Z,7.13
2019-03-31T18:43:04.284Z,8.87
2019-03-31T18:45:32.343Z,8.33
2019-03-31T18:48:01.262Z,8.03
2019-03-31T18:50:29.743Z,7.30
2019-03-31T18:52:58.300Z,6.87
2019-03-31T18:55:41.845Z,6.47
2019-03-31T18:58:14.320Z,6.87
2019-03-31T19:00:57.825Z,7.20
2019-03-31T19:03:44.028Z,6.87
2019-03-31T19:06:31.520Z,6.57
2019-03-31T19:09:25.346Z,7.03
2019-03-31T19:12:01.730Z,6.63
2019-03-31T19:14:52.532Z,6.10
2019-03-31T19:17:49.163Z,6.70
2019-03-31T19:20:40.873Z,6.70
2019-03-31T19:23:25.594Z,6.20
2019-03-31T19:26:08.850Z,5.67
2019-03-31T19:28:54.605Z,6.43
2019-03-31T19:31:53.727Z,7.73
2019-03-31T19:34:30.915Z,6.90
2019-03-31T19:37:25.316Z,9.60
2019-03-31T19:40:10.335Z,6.20
2019-03-31T19:42:45.558Z,6.00
2019-03-31T19:45:23.404Z,5.83
2019-03-31T19:48:13.739Z,7.00
2019-03-31T19:50:59.812Z,7.07
2019-03-31T19:53:46.089Z,6.37
2019-03-31T19:56:30.633Z,5.97
2019-03-31T19:59:26.966Z,6.73
2019-03-31T20:02:32.970Z,6.53
2019-03-31T20:05:19.161Z,6.37
2019-03-31T20:08:12.552Z,5.83
2019-03-31T20:10:46.541Z,6.27
2019-03-31T20:13:29.558Z,5.83
2019-03-31T20:16:20.016Z,6.20
2019-03-31T20:19:15.159Z,5.87
2019-03-31T20:22:04.741Z,6.30
2019-03-31T20:24:46.461Z,5.83
2019-03-31T20:27:42.388Z,6.03
2019-03-31T20:30:35.403Z,6.83
2019-03-31T20:33:21.180Z,5.87
2019-03-31T20:36:08.472Z,6.23
2019-03-31T20:39:01.601Z,6.20
2019-03-31T20:41:40.971Z,6.90
2019-03-31T20:44:08.756Z,6.33
2019-03-31T20:46:36.755Z,6.67
2019-03-31T20:49:04.525Z,6.50
2019-03-31T20:51:32.483Z,6.13
2019-03-31T20:54:00.294Z,6.83
2019-03-31T20:56:29.356Z,6.23
2019-03-31T20:58:57.516Z,6.47
2019-03-31T21:01:26.056Z,6.93
2019-03-31T21:03:53.674Z,6.27
2019-03-31T21:06:21.479Z,6.60
2019-03-31T21:08:49.175Z,6.73
2019-03-31T21:11:17.097Z,7.20
2019-03-31T21:13:44.755Z,6.73
2019-03-31T21:16:12.295Z,6.83
2019-03-31T21:18:39.799Z,7.13
2019-03-31T21:21:07.235Z,6.97
2019-03-31T21:23:34.695Z,6.23
2019-03-31T21:26:02.116Z,6.53
2019-03-31T21:28:29.508Z,6.77
2019-03-31T21:30:56.957Z,6.17
2019-03-31T21:33:24.562Z,6.70
2019-03-31T21:35:53.783Z,6.27
2019-03-31T21:38:21.178Z,6.80
2019-03-31T21:40:48.545Z,7.17
2019-03-31T21:43:15.874Z,6.60
2019-03-31T21:45:44.215Z,7.20
2019-03-31T21:48:11.576Z,6.00
2019-03-31T21:50:38.894Z,7.30
2019-03-31T21:53:06.275Z,6.13
2019-03-31T21:55:33.975Z,7.20
2019-03-31T21:58:01.702Z,6.03
2019-03-31T22:00:47.722Z,6.87
2019-03-31T22:03:15.063Z,6.40
2019-03-31T22:05:42.474Z,6.60
2019-03-31T22:08:09.795Z,6.80
2019-03-31T22:10:37.115Z,6.37
2019-03-31T22:13:04.477Z,6.70
2019-03-31T22:15:31.790Z,7.40
2019-03-31T22:17:59.161Z,6.80
2019-03-31T22:20:26.480Z,6.50
2019-03-31T22:22:53.892Z,6.97
2019-03-31T22:25:21.261Z,7.07
2019-03-31T22:27:48.574Z,6.50
2019-03-31T22:30:15.934Z,6.53
2019-03-31T22:32:43.275Z,7.13
2019-03-31T22:35:10.587Z,6.70
2019-03-31T22:37:37.916Z,6.60
2019-03-31T22:40:05.579Z,6.00
2019-03-31T22:42:32.932Z,6.70
2019-03-31T22:45:00.380Z,6.67
2019-03-31T22:47:27.774Z,6.17
2019-03-31T22:49:55.111Z,7.10
2019-03-31T22:52:22.434Z,6.43
2019-03-31T22:54:49.796Z,7.33
2019-03-31T22:57:17.118Z,6.53
2019-03-31T22:59:44.456Z,6.97
2019-03-31T23:02:11.778Z,6.97
2019-03-31T23:04:39.075Z,6.60
2019-03-31T23:07:06.414Z,6.87
2019-03-31T23:09:34.523Z,7.60
2019-03-31T23:12:02.167Z,7.10
2019-03-31T23:14:29.580Z,6.30
2019-03-31T23:16:56.864Z,6.23
2019-03-31T23:19:24.194Z,6.57
2019-03-31T23:21:51.598Z,6.37
2019-03-31T23:24:18.895Z,6.57
2019-03-31T23:26:46.234Z,6.63
2019-03-31T23:29:13.555Z,5.97
2019-03-31T23:31:40.915Z,6.50
2019-03-31T23:34:08.235Z,6.03
2019-03-31T23:36:36.675Z,6.27
2019-03-31T23:39:06.029Z,6.33
2019-03-31T23:41:33.375Z,6.13
2019-03-31T23:44:00.769Z,6.27
2019-03-31T23:46:28.136Z,6.10
2019-03-31T23:48:55.455Z,6.33
2019-03-31T23:51:22.814Z,6.30
2019-03-31T23:53:50.115Z,6.83
2019-03-31T23:56:17.493Z,6.07
2019-03-31T23:58:44.815Z,6.30
